Zanjan, Iran
Current Conditions -  °F | °C
As of 6:00 PM on Sunday 25 Jan 2015 (Local Time) from OITZ Reporting Station
Clear Clear  
Wind Chill: 32°   Ceiling: Unl
Heat Index: 36°   Visibility: 6mi
Dew Point: 16°   Wind: 5mph
Humidity: 44%   Direction: 60°ENE
Pressure: 30.21"   Gusts: NA
Location:  36.67°N, 48.5°E
Report Text: OITZ 251500Z 06004KT CAVOK 02/M09 Q1023
Loading
Personal Weather Stations






























Interactive Weather Map New forecast layout! Learn more

10-Day Weather Forecast

Advertisements
Track Severe Weather on mobile